PWSweather.com
Personal Weather Stations
Station Observations
N3SME
Betz Creek, Wilmington Island, Savannah, GA 31410

Betz Creek, Wilmington IslandSavannah, GA 31410

Lat: 32.023021, Lon: -80.959452

Elevation: 15

Station Type: Ambient

High Low Average
Temperature 95.3°F35.2°F 75.6°F24.2°F 84.8°F29.3°F
Dew Point 80.1°F26.7°F 71.4°F21.9°F 74.8°F23.8°F
Winds 12.3 mph SSW19.8 mph SSW Calm Calm 4.1 mph 6.6 mph
Wind Gusts 36.7 mph59.1 mph 6.9 mph11.1 mph 17.9 mph28.8 mph
Humidity 91% 50% 74%
Pressure 30.00 in1015.90 in 29.88 in1011.90 in -
Precipitation 0.14 in3.60 in - -
Hour Temp Dew Point Humidity Winds Wind Gusts Pressure Precip Precip Rate Daily Precip Total
12:12 AM 83.4°F28.6°C 73.6°F23.1°C 73% 1.8 mph W2.9 kmh W 10.5 mph16.9 kmh 29.91 in1012.9 mb 0.00 in0.0 mm 0.00 in/hr0.0 mm/hr 0.00 in0.0 mm
12:27 AM 83.0°F28.3°C 73.2°F22.9°C 73% Calm Calm 10.5 mph16.9 kmh 29.91 in1012.9 mb 0.00 in0.0 mm 0.00 in/hr0.0 mm/hr 0.00 in0.0 mm
12:42 AM 82.5°F28.1°C 72.7°F22.6°C 73% Calm Calm 10.5 mph16.9 kmh 29.91 in1012.9 mb 0.00 in0.0 mm 0.00 in/hr0.0 mm/hr 0.00 in0.0 mm
12:57 AM 82.3°F27.9°C 73.0°F22.8°C 74% 1.8 mph W2.9 kmh W 14.1 mph22.7 kmh 29.91 in1012.9 mb 0.00 in0.0 mm 0.00 in/hr0.0 mm/hr 0.00 in0.0 mm
01:12 AM 81.9°F27.7°C 72.6°F22.6°C 74% 3.6 mph SW5.8 kmh SW 14.1 mph22.7 kmh 29.91 in1012.9 mb 0.00 in0.0 mm 0.00 in/hr0.0 mm/hr 0.00 in0.0 mm
01:27 AM 81.4°F27.4°C 72.5°F22.5°C 75% 1.8 mph SW2.9 kmh SW 8.7 mph14.0 kmh 29.91 in1012.9 mb 0.00 in0.0 mm 0.00 in/hr0.0 mm/hr 0.00 in0.0 mm
01:42 AM 81.2°F27.3°C 72.3°F22.4°C 75% Calm Calm 10.5 mph16.9 kmh 29.91 in1012.9 mb 0.00 in0.0 mm 0.00 in/hr0.0 mm/hr 0.00 in0.0 mm
01:57 AM 81.0°F27.2°C 72.2°F22.3°C 75% 1.8 mph WSW2.9 kmh WSW 6.9 mph11.1 kmh 29.91 in1012.9 mb 0.00 in0.0 mm 0.00 in/hr0.0 mm/hr 0.00 in0.0 mm
02:12 AM 80.9°F27.2°C 72.4°F22.4°C 76% 1.8 mph WSW2.9 kmh WSW 8.7 mph14.0 kmh 29.92 in1013.2 mb 0.00 in0.0 mm 0.00 in/hr0.0 mm/hr 0.00 in0.0 mm
02:27 AM 80.5°F26.9°C 72.5°F22.5°C 77% 3.6 mph SW5.8 kmh SW 10.5 mph16.9 kmh 29.92 in1013.2 mb 0.00 in0.0 mm 0.00 in/hr0.0 mm/hr 0.00 in0.0 mm
02:42 AM 80.1°F26.7°C 72.5°F22.5°C 78% Calm Calm 6.9 mph11.1 kmh 29.92 in1013.2 mb 0.00 in0.0 mm 0.00 in/hr0.0 mm/hr 0.00 in0.0 mm
02:57 AM 80.0°F26.7°C 72.7°F22.6°C 79% 8.7 mph W14.0 kmh W 15.7 mph25.3 kmh 29.92 in1013.2 mb 0.00 in0.0 mm 0.00 in/hr0.0 mm/hr 0.00 in0.0 mm
03:12 AM 79.8°F26.6°C 72.5°F22.5°C 79% 3.6 mph W5.8 kmh W 17.4 mph28.0 kmh 29.91 in1012.9 mb 0.00 in0.0 mm 0.00 in/hr0.0 mm/hr 0.00 in0.0 mm
03:27 AM 79.4°F26.3°C 72.6°F22.6°C 80% 1.8 mph W2.9 kmh W 15.7 mph25.3 kmh 29.91 in1012.9 mb 0.00 in0.0 mm 0.00 in/hr0.0 mm/hr 0.00 in0.0 mm
03:42 AM 79.2°F26.2°C 72.8°F22.7°C 81% 5.1 mph WSW8.2 kmh WSW 10.5 mph16.9 kmh 29.90 in1012.5 mb 0.00 in0.0 mm 0.00 in/hr0.0 mm/hr 0.00 in0.0 mm
03:57 AM 79.1°F26.2°C 73.0°F22.8°C 82% 3.6 mph WSW5.8 kmh WSW 12.3 mph19.8 kmh 29.91 in1012.9 mb 0.00 in0.0 mm 0.00 in/hr0.0 mm/hr 0.00 in0.0 mm
04:12 AM 78.9°F26.1°C 73.2°F22.9°C 83% 3.6 mph SW5.8 kmh SW 14.1 mph22.7 kmh 29.91 in1012.9 mb 0.00 in0.0 mm 0.00 in/hr0.0 mm/hr 0.00 in0.0 mm
04:27 AM 78.7°F25.9°C 73.0°F22.8°C 83% 6.9 mph WSW11.1 kmh WSW 14.1 mph22.7 kmh 29.91 in1012.9 mb 0.00 in0.0 mm 0.00 in/hr0.0 mm/hr 0.00 in0.0 mm
04:42 AM 78.7°F25.9°C 73.4°F23.0°C 84% 3.6 mph W5.8 kmh W 17.4 mph28.0 kmh 29.91 in1012.9 mb 0.00 in0.0 mm 0.00 in/hr0.0 mm/hr 0.00 in0.0 mm
04:57 AM 78.3°F25.7°C 73.4°F23.0°C 85% 5.1 mph WSW8.2 kmh WSW 14.1 mph22.7 kmh 29.92 in1013.2 mb 0.00 in0.0 mm 0.00 in/hr0.0 mm/hr 0.00 in0.0 mm
05:12 AM 78.2°F25.7°C 73.2°F22.9°C 85% 1.8 mph WSW2.9 kmh WSW 15.7 mph25.3 kmh 29.93 in1013.5 mb 0.00 in0.0 mm 0.00 in/hr0.0 mm/hr 0.00 in0.0 mm
05:27 AM 78.0°F25.6°C 73.4°F23.0°C 86% Calm Calm 8.7 mph14.0 kmh 29.93 in1013.5 mb 0.00 in0.0 mm 0.00 in/hr0.0 mm/hr 0.00 in0.0 mm
05:42 AM 78.0°F25.6°C 73.7°F23.2°C 87% Calm Calm 8.7 mph14.0 kmh 29.93 in1013.5 mb 0.00 in0.0 mm 0.00 in/hr0.0 mm/hr 0.00 in0.0 mm
05:57 AM 78.0°F25.6°C 73.7°F23.2°C 87% 5.1 mph W8.2 kmh W 14.1 mph22.7 kmh 29.93 in1013.5 mb 0.00 in0.0 mm 0.00 in/hr0.0 mm/hr 0.00 in0.0 mm
06:12 AM 77.6°F25.3°C 73.7°F23.2°C 88% Calm Calm 8.7 mph14.0 kmh 29.94 in1013.9 mb 0.00 in0.0 mm 0.00 in/hr0.0 mm/hr 0.00 in0.0 mm
06:27 AM 77.4°F25.2°C 73.6°F23.1°C 88% Calm Calm 12.3 mph19.8 kmh 29.94 in1013.9 mb 0.00 in0.0 mm 0.00 in/hr0.0 mm/hr 0.00 in0.0 mm
06:42 AM 77.4°F25.2°C 73.9°F23.3°C 89% 1.8 mph SW2.9 kmh SW 10.5 mph16.9 kmh 29.94 in1013.9 mb 0.00 in0.0 mm 0.00 in/hr0.0 mm/hr 0.00 in0.0 mm
06:57 AM 77.4°F25.2°C 73.9°F23.3°C 89% 1.8 mph SW2.9 kmh SW 10.5 mph16.9 kmh 29.95 in1014.2 mb 0.00 in0.0 mm 0.00 in/hr0.0 mm/hr 0.00 in0.0 mm
07:12 AM 77.4°F25.2°C 74.2°F23.4°C 90% 5.1 mph WSW8.2 kmh WSW 17.4 mph28.0 kmh 29.95 in1014.2 mb 0.00 in0.0 mm 0.00 in/hr0.0 mm/hr 0.00 in0.0 mm
07:27 AM 77.8°F25.4°C 74.6°F23.7°C 90% 5.1 mph WSW8.2 kmh WSW 12.3 mph19.8 kmh 29.96 in1014.6 mb 0.00 in0.0 mm 0.00 in/hr0.0 mm/hr 0.00 in0.0 mm
07:42 AM 78.3°F25.7°C 74.8°F23.8°C 89% 5.1 mph WSW8.2 kmh WSW 15.7 mph25.3 kmh 29.96 in1014.6 mb 0.00 in0.0 mm 0.00 in/hr0.0 mm/hr 0.00 in0.0 mm
07:57 AM 78.7°F25.9°C 74.8°F23.8°C 88% 3.6 mph W5.8 kmh W 17.4 mph28.0 kmh 29.96 in1014.6 mb 0.00 in0.0 mm 0.00 in/hr0.0 mm/hr 0.00 in0.0 mm
08:12 AM 79.4°F26.3°C 75.2°F24.0°C 87% 3.6 mph WSW5.8 kmh WSW 19.2 mph30.9 kmh 29.96 in1014.6 mb 0.00 in0.0 mm 0.00 in/hr0.0 mm/hr 0.00 in0.0 mm
08:27 AM 80.1°F26.7°C 75.1°F23.9°C 85% 3.6 mph WSW5.8 kmh WSW 17.4 mph28.0 kmh 29.97 in1014.9 mb 0.00 in0.0 mm 0.00 in/hr0.0 mm/hr 0.00 in0.0 mm
08:42 AM 80.9°F27.2°C 75.1°F23.9°C 83% 1.8 mph WNW2.9 kmh WNW 28.0 mph45.1 kmh 29.97 in1014.9 mb 0.00 in0.0 mm 0.00 in/hr0.0 mm/hr 0.00 in0.0 mm
08:57 AM 81.9°F27.7°C 75.0°F23.9°C 80% 12.3 mph W19.8 kmh W 19.2 mph30.9 kmh 29.97 in1014.9 mb 0.00 in0.0 mm 0.00 in/hr0.0 mm/hr 0.00 in0.0 mm
09:12 AM 82.7°F28.2°C 74.5°F23.6°C 77% 6.9 mph WNW11.1 kmh WNW 24.6 mph39.6 kmh 29.97 in1014.9 mb 0.00 in0.0 mm 0.00 in/hr0.0 mm/hr 0.00 in0.0 mm
09:27 AM 83.6°F28.7°C 74.6°F23.7°C 75% 8.7 mph WNW14.0 kmh WNW 19.2 mph30.9 kmh 29.97 in1014.9 mb 0.00 in0.0 mm 0.00 in/hr0.0 mm/hr 0.00 in0.0 mm
09:42 AM 84.8°F29.3°C 75.0°F23.9°C 73% 8.7 mph W14.0 kmh W 21.0 mph33.8 kmh 29.97 in1014.9 mb 0.00 in0.0 mm 0.00 in/hr0.0 mm/hr 0.00 in0.0 mm
09:57 AM 85.2°F29.6°C 74.9°F23.8°C 72% 3.6 mph WNW5.8 kmh WNW 17.4 mph28.0 kmh 29.98 in1015.2 mb 0.00 in0.0 mm 0.00 in/hr0.0 mm/hr 0.00 in0.0 mm
10:12 AM 86.3°F30.2°C 75.0°F23.9°C 70% 3.6 mph WNW5.8 kmh WNW 15.7 mph25.3 kmh 29.98 in1015.2 mb 0.00 in0.0 mm 0.00 in/hr0.0 mm/hr 0.00 in0.0 mm
10:27 AM 87.0°F30.6°C 75.2°F24.0°C 69% 1.8 mph WNW2.9 kmh WNW 19.2 mph30.9 kmh 29.98 in1015.2 mb 0.00 in0.0 mm 0.00 in/hr0.0 mm/hr 0.00 in0.0 mm
10:42 AM 87.9°F31.1°C 75.2°F24.0°C 67% 1.8 mph WNW2.9 kmh WNW 15.7 mph25.3 kmh 29.98 in1015.2 mb 0.00 in0.0 mm 0.00 in/hr0.0 mm/hr 0.00 in0.0 mm
10:57 AM 89.1°F31.7°C 75.9°F24.4°C 66% 1.8 mph SW2.9 kmh SW 19.2 mph30.9 kmh 29.98 in1015.2 mb 0.00 in0.0 mm 0.00 in/hr0.0 mm/hr 0.00 in0.0 mm
11:12 AM 89.7°F32.1°C 75.4°F24.1°C 64% 1.8 mph WNW2.9 kmh WNW 19.2 mph30.9 kmh 29.98 in1015.2 mb 0.00 in0.0 mm 0.00 in/hr0.0 mm/hr 0.00 in0.0 mm
11:27 AM 90.9°F32.7°C 75.1°F23.9°C 61% 3.6 mph WSW5.8 kmh WSW 19.2 mph30.9 kmh 29.98 in1015.2 mb 0.00 in0.0 mm 0.00 in/hr0.0 mm/hr 0.00 in0.0 mm
11:42 AM 91.5°F33.1°C 75.0°F23.9°C 60% 3.6 mph NW5.8 kmh NW 17.4 mph28.0 kmh 29.97 in1014.9 mb 0.00 in0.0 mm 0.00 in/hr0.0 mm/hr 0.00 in0.0 mm
11:57 AM 92.0°F33.3°C 75.0°F23.9°C 59% 3.6 mph WSW5.8 kmh WSW 21.0 mph33.8 kmh 29.97 in1014.9 mb 0.00 in0.0 mm 0.00 in/hr0.0 mm/hr 0.00 in0.0 mm
12:12 PM 92.7°F33.7°C 74.5°F23.6°C 57% 3.6 mph WNW5.8 kmh WNW 17.4 mph28.0 kmh 29.96 in1014.6 mb 0.00 in0.0 mm 0.00 in/hr0.0 mm/hr 0.00 in0.0 mm
12:27 PM 93.5°F34.2°C 74.6°F23.7°C 56% 3.6 mph WNW5.8 kmh WNW 15.7 mph25.3 kmh 29.97 in1014.9 mb 0.00 in0.0 mm 0.00 in/hr0.0 mm/hr 0.00 in0.0 mm
12:42 PM 93.5°F34.2°C 75.2°F24.0°C 57% Calm Calm 21.0 mph33.8 kmh 29.96 in1014.6 mb 0.00 in0.0 mm 0.00 in/hr0.0 mm/hr 0.00 in0.0 mm
12:57 PM 94.0°F34.4°C 73.3°F22.9°C 53% 3.6 mph WNW5.8 kmh WNW 14.1 mph22.7 kmh 29.96 in1014.6 mb 0.00 in0.0 mm 0.00 in/hr0.0 mm/hr 0.00 in0.0 mm
01:12 PM 93.6°F34.2°C 74.2°F23.4°C 55% 5.1 mph WSW8.2 kmh WSW 14.1 mph22.7 kmh 29.96 in1014.6 mb 0.00 in0.0 mm 0.00 in/hr0.0 mm/hr 0.00 in0.0 mm
01:27 PM 94.2°F34.6°C 74.7°F23.7°C 55% 3.6 mph WSW5.8 kmh WSW 17.4 mph28.0 kmh 29.95 in1014.2 mb 0.00 in0.0 mm 0.00 in/hr0.0 mm/hr 0.00 in0.0 mm
01:42 PM 93.5°F34.2°C 73.5°F23.1°C 54% 5.1 mph WSW8.2 kmh WSW 14.1 mph22.7 kmh 29.95 in1014.2 mb 0.00 in0.0 mm 0.00 in/hr0.0 mm/hr 0.00 in0.0 mm
01:57 PM 94.9°F34.9°C 72.9°F22.7°C 51% 8.7 mph SW14.0 kmh SW 22.8 mph36.7 kmh 29.95 in1014.2 mb 0.00 in0.0 mm 0.00 in/hr0.0 mm/hr 0.00 in0.0 mm
02:12 PM 94.9°F34.9°C 72.9°F22.7°C 51% 5.1 mph SW8.2 kmh SW 14.1 mph22.7 kmh 29.94 in1013.9 mb 0.00 in0.0 mm 0.00 in/hr0.0 mm/hr 0.00 in0.0 mm
02:27 PM 94.0°F34.4°C 71.4°F21.9°C 50% 8.7 mph WSW14.0 kmh WSW 21.0 mph33.8 kmh 29.93 in1013.5 mb 0.00 in0.0 mm 0.00 in/hr0.0 mm/hr 0.00 in0.0 mm
02:42 PM 94.9°F34.9°C 72.9°F22.7°C 51% 5.1 mph SW8.2 kmh SW 26.2 mph42.2 kmh 29.92 in1013.2 mb 0.00 in0.0 mm 0.00 in/hr0.0 mm/hr 0.00 in0.0 mm
02:57 PM 94.7°F34.8°C 75.2°F24.0°C 55% Calm Calm 21.0 mph33.8 kmh 29.91 in1012.9 mb 0.00 in0.0 mm 0.00 in/hr0.0 mm/hr 0.00 in0.0 mm
03:12 PM 95.1°F35.1°C 73.7°F23.2°C 52% Calm Calm 17.4 mph28.0 kmh 29.91 in1012.9 mb 0.00 in0.0 mm 0.00 in/hr0.0 mm/hr 0.00 in0.0 mm
03:27 PM 95.3°F35.2°C 72.6°F22.6°C 50% 5.1 mph WSW8.2 kmh WSW 17.4 mph28.0 kmh 29.89 in1012.2 mb 0.00 in0.0 mm 0.00 in/hr0.0 mm/hr 0.00 in0.0 mm
03:42 PM 95.1°F35.1°C 76.1°F24.5°C 56% 3.6 mph SSW5.8 kmh SSW 17.4 mph28.0 kmh 29.89 in1012.2 mb 0.00 in0.0 mm 0.00 in/hr0.0 mm/hr 0.00 in0.0 mm
03:57 PM 93.8°F34.3°C 76.7°F24.8°C 59% 3.6 mph SW5.8 kmh SW 21.0 mph33.8 kmh 29.89 in1012.2 mb 0.00 in0.0 mm 0.00 in/hr0.0 mm/hr 0.00 in0.0 mm
04:12 PM 94.0°F34.4°C 76.3°F24.6°C 58% 3.6 mph SW5.8 kmh SW 21.0 mph33.8 kmh 29.89 in1012.2 mb 0.00 in0.0 mm 0.00 in/hr0.0 mm/hr 0.00 in0.0 mm
04:27 PM 94.0°F34.4°C 77.4°F25.2°C 60% 6.9 mph WSW11.1 kmh WSW 21.0 mph33.8 kmh 29.88 in1011.9 mb 0.00 in0.0 mm 0.00 in/hr0.0 mm/hr 0.00 in0.0 mm
04:42 PM 93.1°F33.9°C 78.6°F25.9°C 64% 6.9 mph S11.1 kmh S 19.2 mph30.9 kmh 29.89 in1012.2 mb 0.00 in0.0 mm 0.00 in/hr0.0 mm/hr 0.00 in0.0 mm
04:57 PM 91.3°F32.9°C 77.4°F25.2°C 65% 5.1 mph SSW8.2 kmh SSW 29.8 mph48.0 kmh 29.89 in1012.2 mb 0.00 in0.0 mm 0.00 in/hr0.0 mm/hr 0.00 in0.0 mm
05:12 PM 90.0°F32.2°C 77.7°F25.4°C 68% 8.7 mph SSW14.0 kmh SSW 21.0 mph33.8 kmh 29.89 in1012.2 mb 0.00 in0.0 mm 0.00 in/hr0.0 mm/hr 0.00 in0.0 mm
05:27 PM 90.4°F32.4°C 78.0°F25.6°C 68% 6.9 mph W11.1 kmh W 28.0 mph45.1 kmh 29.89 in1012.2 mb 0.00 in0.0 mm 0.00 in/hr0.0 mm/hr 0.00 in0.0 mm
05:42 PM 89.1°F31.7°C 77.8°F25.4°C 70% 5.1 mph SW8.2 kmh SW 26.2 mph42.2 kmh 29.90 in1012.5 mb 0.00 in0.0 mm 0.00 in/hr0.0 mm/hr 0.00 in0.0 mm
05:57 PM 89.3°F31.8°C 77.5°F25.3°C 69% 1.8 mph SW2.9 kmh SW 24.6 mph39.6 kmh 29.91 in1012.9 mb 0.00 in0.0 mm 0.00 in/hr0.0 mm/hr 0.00 in0.0 mm
06:12 PM 89.5°F31.9°C 78.1°F25.6°C 70% 5.1 mph SSW8.2 kmh SSW 22.8 mph36.7 kmh 29.91 in1012.9 mb 0.00 in0.0 mm 0.00 in/hr0.0 mm/hr 0.00 in0.0 mm
06:27 PM 88.6°F31.4°C 78.1°F25.6°C 72% 5.1 mph SW8.2 kmh SW 33.3 mph53.6 kmh 29.91 in1012.9 mb 0.00 in0.0 mm 0.00 in/hr0.0 mm/hr 0.00 in0.0 mm
06:42 PM 90.2°F32.3°C 80.1°F26.7°C 73% 8.7 mph SW14.0 kmh SW 26.2 mph42.2 kmh 29.91 in1012.9 mb 0.00 in0.0 mm 0.00 in/hr0.0 mm/hr 0.00 in0.0 mm
06:57 PM 87.2°F30.7°C 78.1°F25.6°C 75% 12.3 mph SSW19.8 kmh SSW 26.2 mph42.2 kmh 29.92 in1013.2 mb 0.00 in0.0 mm 0.00 in/hr0.0 mm/hr 0.00 in0.0 mm
07:12 PM 87.0°F30.6°C 78.7°F25.9°C 77% 3.6 mph SSW5.8 kmh SSW 35.1 mph56.5 kmh 29.91 in1012.9 mb 0.00 in0.0 mm 0.00 in/hr0.0 mm/hr 0.00 in0.0 mm
07:27 PM 86.1°F30.1°C 78.3°F25.7°C 78% 12.3 mph WSW19.8 kmh WSW 29.8 mph48.0 kmh 29.92 in1013.2 mb 0.00 in0.0 mm 0.00 in/hr0.0 mm/hr 0.00 in0.0 mm
07:42 PM 85.9°F29.9°C 78.1°F25.6°C 78% 5.1 mph SW8.2 kmh SW 26.2 mph42.2 kmh 29.91 in1012.9 mb 0.00 in0.0 mm 0.00 in/hr0.0 mm/hr 0.00 in0.0 mm
07:57 PM 85.7°F29.8°C 78.7°F25.9°C 80% 10.5 mph SE16.9 kmh SE 24.6 mph39.6 kmh 29.91 in1012.9 mb 0.00 in0.0 mm 0.00 in/hr0.0 mm/hr 0.00 in0.0 mm
08:12 PM 85.2°F29.6°C 78.2°F25.7°C 80% 3.6 mph SSW5.8 kmh SSW 21.0 mph33.8 kmh 29.92 in1013.2 mb 0.00 in0.0 mm 0.00 in/hr0.0 mm/hr 0.00 in0.0 mm
08:27 PM 85.0°F29.4°C 77.6°F25.3°C 79% 8.7 mph SW14.0 kmh SW 36.7 mph59.1 kmh 29.93 in1013.5 mb 0.00 in0.0 mm 0.00 in/hr0.0 mm/hr 0.00 in0.0 mm
08:42 PM 85.0°F29.4°C 77.2°F25.1°C 78% 3.6 mph SW5.8 kmh SW 31.5 mph50.7 kmh 29.94 in1013.9 mb 0.00 in0.0 mm 0.00 in/hr0.0 mm/hr 0.00 in0.0 mm
08:57 PM 84.8°F29.3°C 78.6°F25.9°C 82% 3.6 mph SW5.8 kmh SW 14.1 mph22.7 kmh 29.94 in1013.9 mb 0.00 in0.0 mm 0.00 in/hr0.0 mm/hr 0.00 in0.0 mm
09:12 PM 84.5°F29.2°C 77.5°F25.3°C 80% 3.6 mph SSW5.8 kmh SSW 22.8 mph36.7 kmh 29.94 in1013.9 mb 0.00 in0.0 mm 0.00 in/hr0.0 mm/hr 0.00 in0.0 mm
09:27 PM 81.2°F27.3°C 73.1°F22.8°C 77% 3.6 mph ESE5.8 kmh ESE 26.2 mph42.2 kmh 29.98 in1015.2 mb 0.00 in0.0 mm 0.00 in/hr0.0 mm/hr 0.00 in0.0 mm
09:42 PM 79.8°F26.6°C 73.7°F23.2°C 82% 6.9 mph E11.1 kmh E 24.6 mph39.6 kmh 29.98 in1015.2 mb 0.00 in0.0 mm 0.00 in/hr0.0 mm/hr 0.00 in0.0 mm
09:57 PM 79.2°F26.2°C 73.2°F22.9°C 82% 6.9 mph E11.1 kmh E 21.0 mph33.8 kmh 29.97 in1014.9 mb 0.00 in0.0 mm 0.00 in/hr0.0 mm/hr 0.00 in0.0 mm
10:12 PM 79.2°F26.2°C 73.5°F23.1°C 83% 5.1 mph ESE8.2 kmh ESE 24.6 mph39.6 kmh 29.96 in1014.6 mb 0.00 in0.0 mm 0.00 in/hr0.0 mm/hr 0.00 in0.0 mm
10:27 PM 79.4°F26.3°C 74.1°F23.4°C 84% 1.8 mph E2.9 kmh E 12.3 mph19.8 kmh 29.97 in1014.9 mb 0.02 in0.5 mm 0.08 in/hr2.0 mm/hr 0.02 in0.5 mm
10:42 PM 78.3°F25.7°C 74.1°F23.4°C 87% Calm Calm 10.5 mph16.9 kmh 29.97 in1014.9 mb 0.02 in0.5 mm 0.00 in/hr0.0 mm/hr 0.02 in0.5 mm
10:57 PM 78.3°F25.7°C 74.8°F23.8°C 89% Calm Calm 10.5 mph16.9 kmh 29.99 in1015.6 mb 0.02 in0.5 mm 0.00 in/hr0.0 mm/hr 0.02 in0.5 mm
11:12 PM 78.0°F25.6°C 75.1°F23.9°C 91% Calm Calm 6.9 mph11.1 kmh 29.98 in1015.2 mb 0.02 in0.5 mm 0.00 in/hr0.0 mm/hr 0.02 in0.5 mm
11:27 PM 78.0°F25.6°C 75.1°F23.9°C 91% 6.9 mph NE11.1 kmh NE 17.4 mph28.0 kmh 29.99 in1015.6 mb 0.00 in0.0 mm 0.00 in/hr0.0 mm/hr 0.02 in0.5 mm
11:42 PM 76.7°F24.8°C 73.2°F22.9°C 89% 3.6 mph N5.8 kmh N 15.7 mph25.3 kmh 30.00 in1015.9 mb 0.00 in0.0 mm 0.00 in/hr0.0 mm/hr 0.02 in0.5 mm
11:57 PM 75.6°F24.2°C 72.5°F22.5°C 90% 1.8 mph NE2.9 kmh NE 10.5 mph16.9 kmh 29.99 in1015.6 mb 0.06 in1.5 mm 0.24 in/hr6.1 mm/hr 0.08 in2.0 mm